INFORMAÇÕES DO AERODROMO
Icao Aerodromo MGGT Nome do Aerodromo La Aurora Airport Cidade Guatemala City
Código GPS MGGT Elevação Média 4952 ft Tipo de Aerodromo Aeroporto Médio Porte

INFORMAÇÃO DE PISTA
Pista 01 Comprimento da Pista 9800 ft Largura da Pista 196 ft
Elevação da Pista 4884 ft Distância de Area de Escape da Pista 0 ft Orientação da Pista 17
Pista 19 Comprimento da Pista 9800 ft Largura da Pista 196 ft
Elevação da Pista 4952 ft Distância de Area de Escape da Pista 722 ft Orientação da Pista 197

FREQUÊNCIAS DO AERODROMO
Tipo AFIS Nome GUATEMALA Frequência 126.9 MHZ
Tipo APP Nome CON Frequência 119.3 MHZ
Tipo ATIS Nome ATIS Frequência 126.5 MHZ
Tipo CLD Nome CLNC DEL Frequência 120.7 MHZ
Tipo GND Nome GND Frequência 121.9 MHZ
Tipo TWR Nome TWR Frequência 118.1 MHZ

INFORMAÇÕES DE NAVEGAÇÃO PRÓXIMO AO AERODROMO
Tipo VOR-DME Nome La Aurora Frequência 114500 KHZ
Tipo NDB Nome Guatemala City Frequência 375 KHZ

Informações de Meteorologia(METAR atual)
METAR DE MGGT
ADDS - METARS form results

(0947 UTC 26 April 2018)
Data provider http://aviationweather.gov/adds/metars/
 
METAR text: MGGT 260900Z 02006KT 8000 BKN014 18/15 Q1024 A3024 HZ CB/LTNG DIST SSE
Conditions at: MGGT (GUATEMALA/LA AU , GT) observed 0900 UTC 26 April 2018
Temperature: 18.0°C (64°F)
Dewpoint: 15.0°C (59°F) [RH = 83%]
Pressure (altimeter): 30.24 inches Hg (1024.0 mb)
Winds: from the NNE (20 degrees) at 7 MPH (6 knots; 3.1 m/s)
Visibility: 5 miles (8 km)
Ceiling: 1400 feet AGL
Clouds: broken clouds at 1400 feet AGL
Weather: HZ SS  (haze, sandstorm)

Forecast for: MGGT (GUATEMALA/LA AU , GT)
Text: TAF MGGT 260500Z 2606/2706 VRB03KT 5000 BR SCT012 TX27/2620Z TN18/2612Z
Forecast period: 0600 UTC 26 April 2018 to 0600 UTC 27 April 2018
Forecast type: FROM: standard forecast or significant change
Winds: variable direction winds at 3 MPH (3 knots; 1.6 m/s)
Visibility: 3 miles (5 km)
Clouds: scattered clouds at 1200 feet AGL
Weather: BR  (mist)
Forecast for: MGGT (GUATEMALA/LA AU , GT)
Text: TAF MGGT 260500Z 2606/2706 VRB03KT 5000 BR SCT012 TX27/2620Z TN18/2612Z
Forecast period: 0600 UTC 26 April 2018 to 0600 UTC 27 April 2018
Forecast type: FROM: standard forecast or significant change
Winds: variable direction winds at 3 MPH (3 knots; 1.6 m/s)
Visibility: 3 miles (5 km)
Clouds: scattered clouds at 1200 feet AGL
Weather: BR  (mist)
Forecast for: MGGT (GUATEMALA/LA AU , GT)
Text: TAF MGGT 260500Z 2606/2706 VRB03KT 5000 BR SCT012 TX27/2620Z TN18/2612Z
Forecast period: 1500 UTC 25 April 2018 to 0000 UTC 27 April 2018
Forecast type: BECOMING: Conditions expected to become as follows by 1700 UTC 25 April 2018
Winds: from the S (180 degrees) at 12 MPH (10 knots; 5.2 m/s)
Visibility: 5 miles (8 km)
Clouds: scattered clouds at 1800 feet AGL
Weather: BR  (mist)
Forecast for: MGGT (GUATEMALA/LA AU , GT)
Text: TAF MGGT 260500Z 2606/2706 VRB03KT 5000 BR SCT012 TX27/2620Z TN18/2612Z
Forecast period: 1500 UTC 25 April 2018 to 0000 UTC 27 April 2018
Forecast type: BECOMING: Conditions expected to become as follows by 1700 UTC 25 April 2018
Winds: from the S (180 degrees) at 12 MPH (10 knots; 5.2 m/s)
Visibility: 5 miles (8 km)
Clouds: scattered clouds at 1800 feet AGL
Weather: BR  (mist)
Forecast for: MGGT (GUATEMALA/LA AU , GT)
Text: TAF MGGT 260500Z 2606/2706 VRB03KT 5000 BR SCT012 TX27/2620Z TN18/2612Z
Forecast period: 2000 UTC 26 April 2018 to 0000 UTC 27 April 2018
Forecast type: TEMPORARY: The following changes expected for less than half the time period
Clouds: scattered clouds at 2000 feet AGL
few clouds at 2500 feet AGL
Weather: no significant weather forecast for this period
Forecast for: MGGT (GUATEMALA/LA AU , GT)
Text: TAF MGGT 260500Z 2606/2706 VRB03KT 5000 BR SCT012 TX27/2620Z TN18/2612Z
Forecast period: 2000 UTC 26 April 2018 to 0000 UTC 27 April 2018
Forecast type: TEMPORARY: The following changes expected for less than half the time period
Clouds: scattered clouds at 2000 feet AGL
few clouds at 2500 feet AGL
Weather: no significant weather forecast for this period
Forecast for: MGGT (GUATEMALA/LA AU , GT)
Text: TAF MGGT 260500Z 2606/2706 VRB03KT 5000 BR SCT012 TX27/2620Z TN18/2612Z
Forecast period: 0000 to 0600 UTC 27 April 2018
Forecast type: BECOMING: Conditions expected to become as follows by 0200 UTC 27 April 2018
Winds: variable direction winds at 3 MPH (3 knots; 1.6 m/s)
Visibility: 5 miles (8 km)
Clouds: scattered clouds at 1600 feet AGL
Weather: BR  (mist)
Forecast for: MGGT (GUATEMALA/LA AU , GT)
Text: TAF MGGT 260500Z 2606/2706 VRB03KT 5000 BR SCT012 TX27/2620Z TN18/2612Z
Forecast period: 0000 to 0600 UTC 27 April 2018
Forecast type: BECOMING: Conditions expected to become as follows by 0200 UTC 27 April 2018
Winds: variable direction winds at 3 MPH (3 knots; 1.6 m/s)
Visibility: 5 miles (8 km)
Clouds: scattered clouds at 1600 feet AGL
Weather: BR  (mist)

MAPA DO AERODROMO


Desenvolvido por Virtual Airlines Manager




Modificado por Servidor Brasil Amigos